Archiv-/Tagesdaten

--Timestamp---	Temp	Chill	HIndex	Humid	Dewpt	Wind	HiWind	WindDir	Rain	Barom	        Solar	ET	UV
--------------	----	-----	------	-----	-----	----	------	-------	----	-----	        -----	--	--
20090605 00:05	8.8	8.8	8.8	68	3.3	0	2	0	0.00	1011.551	0	0.000	0
20090605 00:10	8.8	8.8	8.8	69	3.4	0	2	0	0.00	1011.517	0	0.000	0
20090605 00:15	8.7	8.7	8.7	69	3.3	0	0	0	0.00	1011.449	0	0.000	0
20090605 00:20	8.6	8.6	8.6	70	3.4	0	5	0	0.00	1011.449	0	0.000	0
20090605 00:25	8.4	8.4	8.4	69	3.1	3	5	0	0.00	1011.280	0	0.000	0
20090605 00:30	8.4	8.4	8.4	68	2.8	2	5	0	0.00	1011.280	0	0.000	0
20090605 00:35	8.4	8.4	8.4	69	3.0	0	2	0	0.00	1011.314	0	0.000	0
20090605 00:40	8.4	8.4	8.4	71	3.4	0	2	0	0.00	1011.246	0	0.000	0
20090605 00:45	8.3	8.3	8.3	70	3.2	0	2	0	0.00	1011.246	0	0.000	0
20090605 00:50	8.2	8.2	8.2	69	2.9	0	2	0	0.00	1011.212	0	0.000	0
20090605 00:55	8.2	8.2	8.2	69	2.9	0	0	0	0.00	1011.179	0	0.000	0
20090605 01:00	8.2	8.2	8.2	69	2.9	0	0	0	0.00	1011.145	0	0.020	0
20090605 01:05	8.3	8.3	8.3	69	2.9	0	2	0	0.00	1011.145	0	0.000	0
20090605 01:10	8.3	8.3	8.3	69	3.0	0	2	0	0.00	1011.179	0	0.000	0
20090605 01:15	8.4	8.4	8.4	69	3.0	0	0	0	0.00	1011.179	0	0.000	0
20090605 01:20	8.4	8.4	8.4	70	3.2	0	0	0	0.00	1011.145	0	0.000	0
20090605 01:25	8.4	8.4	8.4	69	3.1	0	0	0	0.00	1011.145	0	0.000	0
20090605 01:30	8.4	8.4	8.4	69	3.1	0	0	0	0.00	1011.111	0	0.000	0
20090605 01:35	8.5	8.5	8.5	68	2.9	0	2	0	0.00	1011.077	0	0.000	0
20090605 01:40	8.6	8.6	8.6	68	3.0	0	2	0	0.00	1011.043	0	0.000	0
20090605 01:45	8.6	8.6	8.6	68	3.0	0	2	0	0.00	1011.009	0	0.000	0
20090605 01:50	8.7	8.7	8.7	67	2.9	0	2	0	0.00	1011.009	0	0.000	0
20090605 01:55	8.7	8.7	8.7	68	3.1	0	3	0	0.00	1010.975	0	0.000	0
20090605 02:00	8.7	8.7	8.7	67	2.9	0	0	0	0.00	1010.975	0	0.020	0
20090605 02:05	8.7	8.7	8.7	67	2.9	0	2	0	0.00	1010.738	0	0.000	0
20090605 02:10	8.7	8.7	8.7	67	2.9	0	2	0	0.00	1010.772	0	0.000	0
20090605 02:15	8.7	8.7	8.7	67	2.9	0	0	0	0.00	1010.772	0	0.000	0
20090605 02:20	8.7	8.7	8.7	67	2.9	0	0	0	0.00	1010.704	0	0.000	0
20090605 02:25	8.7	8.7	8.7	66	2.7	0	2	0	0.00	1010.738	0	0.000	0
20090605 02:30	8.7	8.7	8.7	66	2.7	0	0	0	0.00	1010.637	0	0.000	0
20090605 02:35	8.7	8.7	8.7	66	2.7	0	2	0	0.00	1010.569	0	0.000	0
20090605 02:40	8.7	8.7	8.7	66	2.7	0	5	0	0.00	1010.569	0	0.000	0
20090605 02:45	8.7	8.7	8.7	67	2.9	0	2	0	0.00	1010.501	0	0.000	0
20090605 02:50	8.6	8.6	8.6	68	3.0	0	0	0	0.00	1010.637	0	0.000	0
20090605 02:55	8.6	8.6	8.6	69	3.2	0	2	0	0.00	1010.704	0	0.000	0
20090605 03:00	8.5	8.5	8.5	69	3.1	0	0	0	0.00	1010.704	0	0.020	0
20090605 03:05	8.4	8.4	8.4	69	3.1	0	2	0	0.00	1010.501	0	0.000	0
20090605 03:10	8.3	8.3	8.3	70	3.2	0	3	0	0.00	1010.535	0	0.000	0
20090605 03:15	8.3	8.3	8.3	70	3.1	0	2	0	0.00	1010.467	0	0.000	0
20090605 03:20	8.2	8.2	8.2	70	3.0	0	2	0	0.00	1010.400	0	0.000	0
20090605 03:25	8.1	8.1	8.1	71	3.1	0	5	0	0.00	1010.433	0	0.000	0
20090605 03:30	8.0	8.0	8.0	71	3.1	0	2	0	0.00	1010.569	0	0.000	0
20090605 03:35	7.9	7.9	7.9	71	3.0	0	3	0	0.00	1010.501	0	0.000	0
20090605 03:40	8.1	8.1	8.1	71	3.1	0	3	0	0.00	1010.196	0	0.000	0
20090605 03:45	8.1	8.1	8.1	72	3.4	0	3	0	0.00	1010.095	0	0.000	0
20090605 03:50	8.1	8.1	8.1	72	3.4	0	2	0	0.00	1010.095	0	0.000	0
20090605 03:55	8.1	8.1	8.1	72	3.3	0	3	0	0.00	1010.061	0	0.000	0
20090605 04:00	8.0	8.0	8.0	73	3.5	2	5	0	0.00	1010.095	0	0.020	0
20090605 04:05	8.0	8.0	8.0	73	3.5	2	5	0	0.00	1009.993	0	0.000	0
20090605 04:10	8.0	8.0	8.0	74	3.7	0	3	0	0.00	1010.061	0	0.000	0
20090605 04:15	8.0	8.0	8.0	75	3.8	0	3	0	0.00	1010.095	0	0.000	0
20090605 04:20	8.0	8.0	8.0	74	3.7	2	5	0	0.00	1010.061	0	0.000	0
20090605 04:25	8.0	8.0	8.0	74	3.7	0	2	0	0.00	1010.061	0	0.000	0
20090605 04:30	8.0	8.0	8.0	74	3.7	0	2	0	0.00	1010.061	0	0.000	0
20090605 04:35	8.1	8.1	8.1	73	3.5	0	5	0	0.00	1010.061	0	0.000	0
20090605 04:40	8.1	8.1	8.1	73	3.5	0	2	0	0.00	1009.959	0	0.000	0
20090605 04:45	8.1	8.1	8.1	73	3.5	0	3	0	0.00	1009.959	0	0.000	0
20090605 04:50	8.1	8.1	8.1	73	3.5	0	0	0	0.00	1009.993	0	0.000	0
20090605 04:55	8.1	8.1	8.1	73	3.6	0	0	0	0.00	1010.027	0	0.000	0
20090605 05:00	8.1	8.1	8.1	74	3.8	0	0	0	0.00	1010.027	0	0.020	0
20090605 05:05	8.1	8.1	8.1	75	3.9	0	0	0	0.00	1010.230	0	0.000	0
20090605 05:10	8.1	8.1	8.1	75	3.9	0	2	0	0.00	1010.163	0	0.000	0
20090605 05:15	8.1	8.1	8.1	73	3.5	0	0	0	0.00	1010.163	0	0.000	0
20090605 05:20	8.1	8.1	8.1	73	3.5	0	0	0	0.00	1010.095	3	0.000	0
20090605 05:25	8.1	8.1	8.1	73	3.5	0	2	0	0.00	1010.095	6	0.000	0
20090605 05:30	8.1	8.1	8.1	73	3.5	0	0	0	0.00	1010.163	13	0.000	0
20090605 05:35	8.1	8.1	8.1	76	4.1	0	0	0	0.00	1010.129	20	0.000	0
20090605 05:40	8.1	8.1	8.1	77	4.3	0	2	180	0.00	1010.095	24	0.000	0
20090605 05:45	8.0	8.0	8.0	78	4.4	2	3	180	0.00	1010.163	32	0.000	0
20090605 05:50	7.9	7.9	7.9	78	4.3	2	3	180	0.00	1010.196	40	0.000	0
20090605 05:55	7.9	7.9	7.9	78	4.3	0	0	180	0.00	1010.129	45	0.000	0
20090605 06:00	7.9	7.9	7.9	78	4.3	0	3	337	0.00	1010.264	60	0.020	0
20090605 06:05	7.9	7.9	7.9	77	4.2	0	2	337	0.00	1010.400	66	0.000	0
20090605 06:10	8.0	8.0	8.0	75	3.8	0	2	337	0.00	1010.366	67	0.000	0
20090605 06:15	8.1	8.1	8.1	75	3.9	0	2	22	0.00	1010.366	92	0.000	0
20090605 06:20	8.2	8.2	8.2	73	3.6	0	0	22	0.00	1010.332	85	0.000	0
20090605 06:25	8.3	8.3	8.3	72	3.6	0	2	112	0.00	1010.400	100	0.000	0
20090605 06:30	8.4	8.4	8.4	72	3.7	0	3	112	0.00	1010.400	104	0.000	0
20090605 06:35	8.6	8.6	8.6	70	3.4	0	2	112	0.00	1010.400	93	0.000	0
20090605 06:40	8.6	8.6	8.6	69	3.2	0	2	112	0.00	1010.366	101	0.000	0
20090605 06:45	8.7	8.7	8.7	70	3.5	0	2	112	0.00	1010.298	114	0.000	0
20090605 06:50	8.8	8.8	8.8	70	3.6	0	2	112	0.00	1010.332	121	0.000	0
20090605 06:55	8.9	8.9	8.9	69	3.5	0	2	112	0.00	1010.264	136	0.000	0
20090605 07:00	9.0	9.0	9.0	69	3.6	0	3	112	0.00	1010.230	162	0.040	0
20090605 07:05	9.2	9.2	9.2	70	4.0	0	3	112	0.00	1010.298	213	0.000	0
20090605 07:10	9.4	9.4	9.4	69	4.0	0	2	112	0.00	1010.264	215	0.000	0
20090605 07:15	9.7	9.7	9.7	68	4.1	2	6	112	0.00	1010.366	166	0.000	0
20090605 07:20	9.8	9.8	9.8	68	4.2	2	6	112	0.00	1010.298	147	0.000	0
20090605 07:25	9.8	9.8	9.8	67	4.0	0	5	112	0.00	1010.264	163	0.000	0
20090605 07:30	9.9	9.9	9.9	68	4.3	0	3	112	0.00	1010.298	175	0.000	0
20090605 07:35	9.9	9.9	9.9	67	4.1	2	5	112	0.00	1010.230	174	0.000	1
20090605 07:40	10.0	10.0	10.0	67	4.2	0	2	112	0.00	1010.163	203	0.000	1
20090605 07:45	10.2	10.2	10.2	67	4.4	0	3	112	0.00	1010.163	253	0.000	1
20090605 07:50	10.6	10.6	10.6	65	4.3	3	6	112	0.00	1010.129	267	0.000	1
20090605 07:55	10.7	10.7	10.7	63	3.9	2	5	112	0.00	1010.095	178	0.000	1
20090605 08:00	10.5	10.5	10.5	63	3.8	2	5	112	0.00	1010.095	209	0.080	1
20090605 08:05	10.5	10.5	10.5	63	3.8	2	5	112	0.00	1010.298	205	0.000	1
20090605 08:10	10.5	10.5	10.5	64	4.0	3	6	112	0.00	1010.366	232	0.000	1
20090605 08:15	10.5	10.5	10.5	63	3.8	3	6	112	0.00	1010.366	229	0.000	1
20090605 08:20	10.5	10.5	10.5	64	4.0	2	5	112	0.00	1010.400	240	0.000	1
20090605 08:25	10.4	10.4	10.4	63	3.7	3	6	112	0.00	1010.332	340	0.000	1
20090605 08:30	10.6	10.6	10.6	62	3.6	3	6	112	0.00	1010.366	381	0.000	1
20090605 08:35	10.7	10.7	10.7	62	3.7	2	6	112	0.00	1010.366	241	0.000	1
20090605 08:40	10.8	10.8	10.8	63	4.0	0	5	157	0.00	1010.332	238	0.000	1
20090605 08:45	10.9	10.9	10.9	62	3.9	2	5	157	0.00	1010.298	280	0.000	1
20090605 08:50	10.9	10.9	10.9	63	4.2	2	6	157	0.00	1010.298	313	0.000	2
20090605 08:55	11.2	11.2	11.2	62	4.2	3	8	157	0.00	1010.230	421	0.000	2
20090605 09:00	11.6	11.6	11.6	61	4.3	5	8	135	0.00	1010.163	407	0.120	2
20090605 09:05	11.6	11.6	11.6	62	4.5	3	6	90	0.00	1010.298	434	0.000	2
20090605 09:10	11.7	11.7	11.7	61	4.4	5	8	112	0.00	1010.196	532	0.000	2
20090605 09:15	11.9	11.9	11.9	61	4.7	2	6	135	0.00	1010.163	595	0.000	2
20090605 09:20	12.3	12.3	12.3	61	5.0	3	8	135	0.00	1010.061	690	0.000	3
20090605 09:25	12.5	12.5	12.5	59	4.7	3	5	135	0.00	1010.095	531	0.000	3
20090605 09:30	12.6	12.6	12.6	58	4.6	2	6	135	0.00	1010.027	463	0.000	3
20090605 09:35	12.5	12.5	12.5	59	4.7	3	6	45	0.00	1009.926	659	0.000	3
20090605 09:40	12.7	12.7	12.7	61	5.3	2	5	45	0.00	1009.993	470	0.000	3
20090605 09:45	12.9	12.9	12.9	61	5.5	3	6	202	0.00	1009.926	476	0.000	3
20090605 09:50	13.2	13.2	13.2	57	4.9	2	6	202	0.00	1009.722	591	0.000	3
20090605 09:55	13.5	13.5	13.5	58	5.4	2	6	202	0.00	1009.756	658	0.000	4
20090605 10:00	13.8	13.8	13.8	57	5.4	3	6	202	0.00	1009.722	698	0.220	4
20090605 10:05	13.9	13.9	13.9	57	5.6	2	6	225	0.00	1009.892	666	0.000	4
20090605 10:10	14.1	14.1	14.1	55	5.2	3	8	315	0.00	1009.756	617	0.000	4
20090605 10:15	14.2	14.2	14.2	54	5.0	3	8	292	0.00	1009.722	665	0.000	4
20090605 10:20	14.3	14.3	14.3	53	4.9	2	8	292	0.00	1009.587	717	0.000	4
20090605 10:25	14.5	14.5	14.5	51	4.5	3	10	292	0.00	1009.621	729	0.000	4
20090605 10:30	14.5	14.5	14.5	50	4.2	5	8	337	0.00	1009.587	733	0.000	5
20090605 10:35	14.3	14.3	14.3	51	4.3	5	11	270	0.00	1009.485	727	0.000	5
20090605 10:40	14.3	14.3	14.3	53	4.9	3	11	270	0.00	1009.418	754	0.000	5
20090605 10:45	14.4	14.4	14.4	51	4.4	3	6	247	0.00	1009.350	748	0.000	5
20090605 10:50	14.7	14.7	14.7	52	4.9	0	6	247	0.00	1009.282	766	0.000	5
20090605 10:55	15.0	15.0	15.0	52	5.2	6	11	202	0.00	1009.181	771	0.000	5
20090605 11:00	15.0	15.0	15.0	53	5.5	6	11	270	0.00	1009.113	789	0.300	6
20090605 11:05	15.1	15.1	15.1	52	5.3	2	8	247	0.00	1009.079	769	0.000	6
20090605 11:10	15.3	15.3	15.3	53	5.8	3	8	292	0.00	1009.113	762	0.000	6
20090605 11:15	15.0	15.0	15.0	52	5.2	6	14	22	0.00	1009.079	801	0.000	6
20090605 11:20	15.2	15.2	15.2	53	5.6	3	8	22	0.00	1009.045	817	0.000	6
20090605 11:25	15.4	15.4	15.4	52	5.6	5	14	315	0.00	1008.977	812	0.000	6
20090605 11:30	15.5	15.5	15.5	54	6.2	3	10	270	0.00	1008.910	820	0.000	6
20090605 11:35	15.7	15.7	15.7	53	6.2	5	16	270	0.00	1008.977	832	0.000	6
20090605 11:40	16.0	16.0	16.0	53	6.4	5	8	270	0.00	1008.842	824	0.000	6
20090605 11:45	15.9	15.9	15.9	49	5.2	10	21	315	0.00	1008.808	837	0.000	6
20090605 11:50	15.7	15.7	15.7	52	5.9	5	11	315	0.00	1008.774	864	0.000	7
20090605 11:55	15.7	15.7	15.7	49	5.0	5	14	315	0.00	1008.842	824	0.000	6
20090605 12:00	15.6	15.6	15.6	55	6.6	3	10	315	0.00	1008.706	843	0.360	7
20090605 12:05	15.8	15.8	15.8	51	5.7	3	10	315	0.00	1008.842	883	0.000	7
20090605 12:10	16.2	16.2	16.2	52	6.3	3	8	315	0.00	1008.673	852	0.000	7
20090605 12:15	16.6	16.6	16.6	50	6.1	5	19	315	0.00	1008.503	828	0.000	7
20090605 12:20	16.7	16.7	16.7	49	5.9	8	16	315	0.00	1008.503	842	0.000	7
20090605 12:25	16.7	16.7	16.7	50	6.2	5	19	315	0.00	1008.469	902	0.000	7
20090605 12:30	16.4	16.4	16.4	48	5.4	11	23	315	0.00	1008.503	905	0.000	7
20090605 12:35	16.5	16.5	16.5	47	5.1	5	11	315	0.00	1008.469	898	0.000	7
20090605 12:40	16.6	16.6	16.6	49	5.8	8	16	315	0.00	1008.469	898	0.000	8
20090605 12:45	16.6	16.6	16.6	49	5.8	5	14	270	0.00	1008.469	903	0.000	8
20090605 12:50	16.7	16.7	16.7	46	5.0	3	8	247	0.00	1008.402	880	0.000	7
20090605 12:55	16.8	16.8	16.8	48	5.8	5	14	0	0.00	1008.435	885	0.000	7
20090605 13:00	17.1	17.1	17.1	48	6.0	8	19	315	0.00	1008.300	913	0.400	8
20090605 13:05	16.9	16.9	16.9	49	6.2	6	16	315	0.00	1008.165	916	0.000	8
20090605 13:10	17.2	17.2	17.2	48	6.1	5	11	270	0.00	1008.097	910	0.000	8
20090605 13:15	17.2	17.2	17.2	52	7.3	10	19	292	0.00	1007.995	909	0.000	8
20090605 13:20	17.3	17.3	17.3	48	6.2	3	10	22	0.00	1007.995	892	0.000	7
20090605 13:25	17.4	17.4	17.4	49	6.6	5	18	67	0.00	1007.860	913	0.000	8
20090605 13:30	17.6	17.6	17.6	50	7.1	6	16	315	0.00	1007.690	918	0.000	8
20090605 13:35	17.8	17.8	17.8	47	6.3	5	11	292	0.00	1007.589	835	0.000	7
20090605 13:40	17.9	17.9	17.9	49	7.0	2	6	0	0.00	1007.555	863	0.000	7
20090605 13:45	18.1	18.1	18.1	50	7.5	3	18	337	0.00	1007.487	931	0.000	8
20090605 13:50	18.3	18.3	18.3	48	7.1	5	14	22	0.00	1007.487	920	0.000	8
20090605 13:55	18.3	18.3	18.3	48	7.1	3	13	337	0.00	1007.352	907	0.000	8
20090605 14:00	18.3	18.3	18.3	48	7.1	8	16	315	0.00	1007.318	897	0.420	7
20090605 14:05	18.3	18.3	18.3	46	6.5	6	16	315	0.00	1007.250	892	0.000	7
20090605 14:10	18.5	18.5	18.5	46	6.7	6	11	292	0.00	1007.216	887	0.000	7
20090605 14:15	18.7	18.7	18.7	45	6.5	6	19	315	0.00	1007.216	882	0.000	7
20090605 14:20	18.7	18.7	18.7	45	6.5	8	14	315	0.00	1007.149	877	0.000	7
20090605 14:25	18.6	18.6	18.6	44	6.1	6	11	45	0.00	1007.115	866	0.000	7
20090605 14:30	18.2	18.2	18.2	46	6.4	3	10	315	0.00	1006.945	862	0.000	7
20090605 14:35	18.3	18.3	18.3	46	6.5	5	11	315	0.00	1006.912	850	0.000	7
20090605 14:40	18.6	18.6	18.6	47	7.1	5	10	292	0.00	1006.912	864	0.000	7
20090605 14:45	18.8	18.8	18.8	47	7.2	10	19	315	0.00	1006.945	858	0.000	7
20090605 14:50	19.0	19.0	19.0	45	6.8	3	10	270	0.00	1006.742	852	0.000	6
20090605 14:55	19.2	19.2	19.2	43	6.3	10	29	315	0.00	1006.776	844	0.000	6
20090605 15:00	19.0	19.0	19.0	44	6.5	6	16	315	0.00	1006.742	835	0.420	6
20090605 15:05	19.1	19.1	19.1	44	6.5	6	16	45	0.00	1006.776	831	0.000	6
20090605 15:10	19.2	19.2	19.2	43	6.3	11	19	315	0.00	1006.641	824	0.000	6
20090605 15:15	19.3	19.3	19.3	45	7.0	11	21	292	0.00	1006.675	817	0.000	6
20090605 15:20	19.4	19.4	19.4	43	6.5	13	21	315	0.00	1006.607	806	0.000	6
20090605 15:25	19.4	19.4	19.4	42	6.2	6	16	337	0.00	1006.471	798	0.000	6
20090605 15:30	19.6	19.6	19.6	44	7.0	6	18	315	0.00	1006.404	788	0.000	5
20090605 15:35	19.9	19.9	19.9	44	7.3	6	18	292	0.00	1006.336	784	0.000	5
20090605 15:40	20.0	20.0	20.0	41	6.3	6	16	292	0.00	1006.268	770	0.000	5
20090605 15:45	19.8	19.8	19.8	44	7.2	8	19	292	0.00	1006.031	773	0.000	5
20090605 15:50	19.6	19.6	19.6	44	7.0	8	18	315	0.00	1006.133	705	0.000	5
20090605 15:55	19.6	19.6	19.6	46	7.6	3	10	22	0.00	1006.099	682	0.000	4
20090605 16:00	19.8	19.8	19.8	44	7.2	6	16	67	0.00	1005.896	622	0.400	4
20090605 16:05	19.7	19.7	19.7	44	7.1	6	16	292	0.00	1005.963	638	0.000	4
20090605 16:10	19.3	19.3	19.3	44	6.8	5	11	0	0.00	1005.930	721	0.000	4
20090605 16:15	19.3	19.3	19.3	44	6.7	6	14	0	0.00	1005.828	695	0.000	4
20090605 16:20	19.2	19.2	19.2	44	6.7	10	14	45	0.00	1005.828	640	0.000	4
20090605 16:25	19.1	19.1	19.1	43	6.2	6	16	0	0.00	1005.930	592	0.000	4
20090605 16:30	19.1	19.1	19.1	45	6.9	3	11	22	0.00	1005.794	603	0.000	4
20090605 16:35	19.4	19.4	19.4	43	6.5	6	11	315	0.00	1005.726	579	0.000	3
20090605 16:40	19.2	19.2	19.2	43	6.3	3	10	22	0.00	1005.591	485	0.000	3
20090605 16:45	19.3	19.3	19.3	45	7.1	5	10	292	0.00	1005.625	508	0.000	3
20090605 16:50	19.6	19.6	19.6	44	7.0	6	14	22	0.00	1005.523	484	0.000	3
20090605 16:55	19.8	19.8	19.8	44	7.2	5	14	22	0.00	1005.523	577	0.000	3
20090605 17:00	20.1	20.1	20.1	43	7.1	3	8	315	0.00	1005.523	613	0.300	3
20090605 17:05	20.3	20.3	20.3	43	7.3	3	8	315	0.00	1005.523	562	0.000	2
20090605 17:10	20.0	20.0	20.0	41	6.3	8	18	22	0.00	1005.523	599	0.000	3
20090605 17:15	19.8	19.8	19.8	41	6.2	3	8	22	0.00	1005.523	296	0.000	2
20090605 17:20	19.8	19.8	19.8	44	7.2	2	8	337	0.00	1005.523	504	0.000	2
20090605 17:25	19.9	19.9	19.9	41	6.3	3	10	315	0.00	1005.489	468	0.000	2
20090605 17:30	19.9	19.9	19.9	41	6.3	5	11	22	0.00	1005.456	399	0.000	2
20090605 17:35	19.3	19.3	19.3	42	6.0	5	11	315	0.00	1005.557	268	0.000	2
20090605 17:40	19.1	19.1	19.1	43	6.2	3	10	315	0.00	1005.523	355	0.000	2
20090605 17:45	19.2	19.2	19.2	43	6.3	2	6	270	0.00	1005.489	353	0.000	2
20090605 17:50	19.3	19.3	19.3	43	6.4	2	6	225	0.00	1005.388	296	0.000	1
20090605 17:55	19.3	19.3	19.3	42	6.0	3	10	22	0.00	1005.422	236	0.000	1
20090605 18:00	19.2	19.2	19.2	44	6.6	2	8	0	0.00	1005.388	226	0.200	1
20090605 18:05	19.0	19.0	19.0	44	6.5	2	8	22	0.00	1005.354	251	0.000	1
20090605 18:10	18.8	18.8	18.8	44	6.3	5	11	22	0.00	1005.320	225	0.000	1
20090605 18:15	18.7	18.7	18.7	46	6.9	2	8	22	0.00	1005.252	195	0.000	1
20090605 18:20	18.7	18.7	18.7	44	6.2	2	10	22	0.00	1005.252	191	0.000	1
20090605 18:25	18.7	18.7	18.7	47	7.1	0	3	22	0.00	1005.252	185	0.000	1
20090605 18:30	18.6	18.6	18.6	45	6.4	2	8	22	0.00	1005.151	178	0.000	1
20090605 18:35	18.3	18.3	18.3	42	5.2	8	14	22	0.00	1005.286	222	0.000	1
20090605 18:40	18.3	18.3	18.3	44	5.8	6	13	45	0.00	1005.354	177	0.000	1
20090605 18:45	18.1	18.1	18.1	46	6.3	8	13	45	0.00	1005.320	196	0.000	1
20090605 18:50	18.0	18.0	18.0	47	6.5	8	14	67	0.00	1005.320	193	0.000	1
20090605 18:55	17.9	17.9	17.9	47	6.5	6	11	45	0.00	1005.252	147	0.000	1
20090605 19:00	17.7	17.7	17.7	47	6.3	6	11	22	0.00	1005.218	144	0.120	0
20090605 19:05	17.7	17.7	17.7	47	6.2	6	14	67	0.00	1005.151	134	0.000	0
20090605 19:10	17.6	17.6	17.6	48	6.5	5	10	67	0.00	1005.320	116	0.000	0
20090605 19:15	17.4	17.4	17.4	50	6.9	3	10	90	0.00	1005.252	103	0.000	0
20090605 19:20	17.3	17.3	17.3	50	6.8	5	8	67	0.00	1005.117	103	0.000	0
20090605 19:25	17.2	17.2	17.2	50	6.7	3	6	90	0.00	1005.151	100	0.000	0
20090605 19:30	17.1	17.1	17.1	50	6.5	3	8	90	0.00	1005.151	99	0.000	0
20090605 19:35	17.0	17.0	17.0	50	6.5	3	6	90	0.00	1005.151	102	0.000	0
20090605 19:40	17.0	17.0	17.0	49	6.2	3	6	90	0.00	1005.117	86	0.000	0
20090605 19:45	16.9	16.9	16.9	51	6.7	3	6	90	0.00	1005.252	77	0.000	0
20090605 19:50	16.8	16.8	16.8	51	6.6	3	8	90	0.00	1005.286	70	0.000	0
20090605 19:55	16.7	16.7	16.7	52	6.8	2	5	90	0.00	1005.286	65	0.000	0
20090605 20:00	16.6	16.6	16.6	52	6.7	3	5	90	0.00	1005.286	59	0.060	0
20090605 20:05	16.6	16.6	16.6	52	6.7	2	5	90	0.00	1005.117	58	0.000	0
20090605 20:10	16.5	16.5	16.5	53	6.9	2	5	90	0.00	1005.015	56	0.000	0
20090605 20:15	16.4	16.4	16.4	54	7.1	3	6	90	0.00	1005.049	43	0.000	0
20090605 20:20	16.3	16.3	16.3	53	6.7	2	5	90	0.00	1005.015	34	0.000	0
20090605 20:25	16.2	16.2	16.2	52	6.3	2	5	90	0.00	1005.083	32	0.000	0
20090605 20:30	16.2	16.2	16.2	52	6.3	2	5	112	0.00	1004.948	32	0.000	0
20090605 20:35	16.2	16.2	16.2	53	6.6	2	5	45	0.00	1005.015	29	0.000	0
20090605 20:40	16.1	16.1	16.1	53	6.5	3	6	90	0.00	1005.049	27	0.000	0
20090605 20:45	15.9	15.9	15.9	53	6.4	3	6	90	0.00	1005.015	20	0.000	0
20090605 20:50	15.8	15.8	15.8	52	6.0	5	10	67	0.00	1004.914	12	0.000	0
20090605 20:55	15.8	15.8	15.8	53	6.2	5	10	45	0.00	1005.049	8	0.000	0
20090605 21:00	15.7	15.7	15.7	54	6.4	3	8	67	0.00	1005.185	7	0.040	0
20090605 21:05	15.5	15.5	15.5	56	6.8	3	6	67	0.00	1004.846	8	0.000	0
20090605 21:10	15.3	15.3	15.3	58	7.1	2	5	67	0.00	1004.948	7	0.000	0
20090605 21:15	15.0	15.0	15.0	58	6.8	3	6	67	0.00	1004.981	3	0.000	0
20090605 21:20	15.0	15.0	15.0	59	7.0	2	5	67	0.00	1005.117	0	0.000	0
20090605 21:25	15.0	15.0	15.0	60	7.3	3	8	67	0.00	1005.117	0	0.000	0
20090605 21:30	14.7	14.7	14.7	59	6.8	6	11	67	0.00	1005.049	0	0.000	0
20090605 21:35	14.6	14.6	14.6	59	6.6	5	10	67	0.00	1005.185	0	0.000	0
20090605 21:40	14.4	14.4	14.4	60	6.8	5	10	90	0.00	1005.151	0	0.000	0
20090605 21:45	14.3	14.3	14.3	61	6.9	5	11	90	0.00	1005.049	0	0.000	0
20090605 21:50	14.2	14.2	14.2	62	7.0	5	10	90	0.00	1005.117	0	0.000	0
20090605 21:55	14.1	14.1	14.1	62	6.9	5	14	112	0.00	1005.151	0	0.000	0
20090605 22:00	13.9	13.9	13.9	62	6.8	6	11	90	0.00	1005.151	0	0.020	0
20090605 22:05	13.8	13.8	13.8	63	6.9	3	10	90	0.00	1005.049	0	0.000	0
20090605 22:10	13.8	13.8	13.8	63	6.9	5	8	112	0.00	1005.015	0	0.000	0
20090605 22:15	13.7	13.7	13.7	63	6.8	5	10	112	0.00	1005.015	0	0.000	0
20090605 22:20	13.6	13.6	13.6	64	6.9	5	11	90	0.00	1004.948	0	0.000	0
20090605 22:25	13.6	13.6	13.6	64	6.9	5	11	112	0.00	1004.880	0	0.000	0
20090605 22:30	13.5	13.5	13.5	64	6.8	5	10	112	0.00	1005.083	0	0.000	0
20090605 22:35	13.4	13.4	13.4	64	6.8	5	11	112	0.00	1005.117	0	0.000	0
20090605 22:40	13.3	13.3	13.3	64	6.7	6	11	90	0.00	1004.948	0	0.000	0
20090605 22:45	13.3	13.3	13.3	64	6.6	6	16	135	0.00	1004.846	0	0.000	0
20090605 22:50	13.3	13.3	13.3	64	6.6	6	11	112	0.00	1004.846	0	0.000	0
20090605 22:55	13.2	13.2	13.2	64	6.6	6	13	112	0.00	1004.744	0	0.000	0
20090605 23:00	13.1	13.1	13.1	64	6.5	6	14	135	0.00	1004.711	0	0.040	0
20090605 23:05	13.1	13.1	13.1	64	6.4	6	11	112	0.00	1004.643	0	0.000	0
20090605 23:10	13.1	13.1	13.1	64	6.4	8	14	112	0.00	1004.812	0	0.000	0
20090605 23:15	13.1	13.1	13.1	64	6.4	6	11	112	0.00	1004.575	0	0.000	0
20090605 23:20	13.1	13.1	13.1	64	6.4	6	14	112	0.00	1004.507	0	0.000	0
20090605 23:25	13.1	13.1	13.1	65	6.6	6	11	112	0.00	1004.406	0	0.000	0
20090605 23:30	13.0	13.0	13.0	65	6.6	6	11	112	0.00	1004.338	0	0.000	0
20090605 23:35	12.9	12.9	12.9	65	6.5	3	10	112	0.00	1004.473	0	0.000	0
20090605 23:40	12.9	12.9	12.9	65	6.5	3	11	112	0.00	1004.406	0	0.000	0
20090605 23:45	12.9	12.9	12.9	65	6.5	5	10	112	0.00	1004.372	0	0.000	0
20090605 23:50	12.9	12.9	12.9	64	6.2	5	8	90	0.00	1004.270	0	0.000	0
20090605 23:55	12.9	12.9	12.9	64	6.2	6	11	90	0.00	1004.033	0	0.000	0
20090605 24:00	12.9	12.9	12.9	64	6.2	5	10	90	0.00	1003.999	0	0.040	0



Please note the license to use and transfer of this data:
http://creativecommons.org/licenses/by-nc-sa/3.0/deed.en

Bitte beachten sie die Lizenz zur Verwertung und Weitergabe der Daten:
http://creativecommons.org/licenses/by-nc-sa/3.0/deed.de

zurück zur Übersicht der Archivdaten (Monats und Tagesdaten)

Cookies helfen bei der Bereitstellung von Inhalten. Durch die Nutzung dieser Seiten erklärst du dich damit einverstanden, dass Cookies auf deinem Rechner gespeichert werden. Weitere Information